Time;durP1;ratioP1;P1;durP2;ratioP2;P2;SDS_P1;SDS_P2;PMS_P1;PMS_P2;Temp;Humidity;BMP_temperature;BMP_pressure;BME280_temperature;BME280_humidity;BME280_pressure;Samples;Min_cycle;Max_cycle;Signal;HPM_P1;HPM_P2
2022/07/21 00:00:21;;;;;;;;;;;29.50;54.80;;;;;;5115601;28;19919;-50
2022/07/21 00:02:47;;;;;;;;;;;29.40;55.10;;;;;;5098257;28;19907;-50
2022/07/21 00:05:13;;;;;;;;;;;29.30;55.40;;;;;;5115820;28;19931;-52
2022/07/21 00:07:38;;;;;;;;;;;29.30;55.90;;;;;;5115418;28;20321;-54
2022/07/21 00:10:04;;;;;;;;;;;29.20;56.60;;;;;;5116107;28;20014;-55
2022/07/21 00:12:30;;;;;;;;;;;28.90;57.90;;;;;;5115499;28;19912;-50
2022/07/21 00:14:55;;;;;;;;;;;28.60;59.20;;;;;;5115489;28;19912;-50
2022/07/21 00:17:21;;;;;;;;;;;28.40;60.40;;;;;;5114706;28;20428;-48
2022/07/21 00:19:46;;;;;;;;;;;28.20;62.10;;;;;;5113990;28;19940;-49
2022/07/21 00:22:12;;;;;;;;;;;28.10;62.80;;;;;;5115295;28;20451;-49
2022/07/21 00:24:38;;;;;;;;;;;28.10;63.10;;;;;;5114942;28;19920;-47
2022/07/21 00:27:03;;;;;;;;;;;28.00;63.70;;;;;;5114621;28;19999;-46
2022/07/21 00:29:29;;;;;;;;;;;27.90;65.00;;;;;;5096196;28;19951;-46
2022/07/21 00:31:54;;;;;;;;;;;27.90;65.40;;;;;;5115093;28;19960;-53
2022/07/21 00:34:20;;;;;;;;;;;27.90;66.10;;;;;;5095789;28;19930;-50
2022/07/21 00:36:46;;;;;;;;;;;27.90;66.60;;;;;;5095653;28;19916;-50
2022/07/21 00:39:12;;;;;;;;;;;27.90;66.60;;;;;;5114056;28;19951;-49
2022/07/21 00:41:37;;;;;;;;;;;27.80;67.10;;;;;;5114183;28;19919;-49
2022/07/21 00:44:03;;;;;;;;;;;27.70;67.60;;;;;;5124565;27;19915;-51
2022/07/21 00:46:28;;;;;;;;;;;27.50;68.10;;;;;;5116236;27;20002;-54
2022/07/21 00:48:54;;;;;;;;;;;27.30;68.70;;;;;;5115305;27;19923;-47
2022/07/21 00:51:19;;;;;;;;;;;27.20;69.20;;;;;;5113971;28;19912;-51
2022/07/21 00:53:45;;;;;;;;;;;27.00;69.40;;;;;;5113973;27;20289;-50
2022/07/21 00:56:10;;;;;;;;;;;27.00;69.60;;;;;;5134207;27;19912;-49
2022/07/21 00:58:36;;;;;;;;;;;27.00;69.60;;;;;;5119339;27;19919;-52
2022/07/21 01:01:01;;;;;;;;;;;27.00;69.50;;;;;;5115002;28;19920;-49
2022/07/21 01:03:27;;;;;;;;;;;26.80;70.00;;;;;;5115897;28;19920;-51
2022/07/21 01:05:53;;;;;;;;;;;26.70;69.90;;;;;;5116645;28;19916;-52
2022/07/21 01:08:18;;;;;;;;;;;26.60;69.90;;;;;;5115299;28;20466;-52
2022/07/21 01:10:44;;;;;;;;;;;26.50;70.20;;;;;;5114130;28;20468;-52
2022/07/21 01:13:10;;;;;;;;;;;26.30;70.50;;;;;;5114305;28;19912;-47
2022/07/21 01:15:36;;;;;;;;;;;26.20;70.70;;;;;;5113899;28;19932;-51
2022/07/21 01:18:02;;;;;;;;;;;26.20;70.60;;;;;;5111043;28;19992;-51
2022/07/21 01:20:31;;;;;;;;;;;26.10;70.70;;;;;;5112469;28;19912;-50
2022/07/21 01:22:57;;;;;;;;;;;26.20;70.60;;;;;;5112357;28;19916;-50
2022/07/21 01:25:22;;;;;;;;;;;26.10;70.70;;;;;;5113501;28;19926;-53
2022/07/21 01:27:48;;;;;;;;;;;26.10;70.50;;;;;;5094823;28;19919;-55
2022/07/21 01:30:15;;;;;;;;;;;26.00;70.50;;;;;;5094682;28;19907;-50
2022/07/21 01:32:40;;;;;;;;;;;26.10;70.50;;;;;;5112577;28;19943;-50
2022/07/21 01:35:07;;;;;;;;;;;26.00;70.30;;;;;;5112925;28;19919;-52
2022/07/21 01:37:34;;;;;;;;;;;26.10;70.40;;;;;;5112594;28;19945;-55
2022/07/21 01:42:43;;;;;;;;;;;25.90;70.20;;;;;;5093130;28;20334;-49
2022/07/21 01:45:09;;;;;;;;;;;25.90;70.10;;;;;;5129549;27;19919;-49
2022/07/21 01:47:35;;;;;;;;;;;25.90;70.00;;;;;;5113183;28;19908;-52
2022/07/21 01:50:00;;;;;;;;;;;25.80;70.10;;;;;;5113211;28;19911;-51
2022/07/21 01:52:26;;;;;;;;;;;25.70;69.90;;;;;;5112463;28;20409;-53
2022/07/21 01:54:51;;;;;;;;;;;25.80;69.80;;;;;;5113438;28;19959;-50
2022/07/21 01:57:17;;;;;;;;;;;25.90;69.50;;;;;;5112040;28;20412;-49
2022/07/21 01:59:43;;;;;;;;;;;25.80;69.30;;;;;;5113647;28;19972;-47
2022/07/21 02:02:08;;;;;;;;;;;25.80;69.30;;;;;;5112907;28;20455;-51
2022/07/21 02:04:34;;;;;;;;;;;25.90;69.20;;;;;;5112855;28;20007;-49
2022/07/21 02:07:00;;;;;;;;;;;25.80;69.20;;;;;;5112205;28;19916;-55
2022/07/21 02:09:26;;;;;;;;;;;25.80;69.50;;;;;;5114130;28;19923;-49
2022/07/21 02:11:51;;;;;;;;;;;25.80;69.10;;;;;;5114578;28;19908;-51
2022/07/21 02:14:17;;;;;;;;;;;25.80;69.70;;;;;;5113173;28;19951;-52
2022/07/21 02:16:42;;;;;;;;;;;25.90;68.70;;;;;;5112267;28;19959;-49
2022/07/21 02:19:09;;;;;;;;;;;25.90;68.60;;;;;;5112737;28;20014;-52
2022/07/21 02:21:34;;;;;;;;;;;25.80;68.70;;;;;;5112392;28;20331;-50
2022/07/21 02:24:00;;;;;;;;;;;25.80;68.80;;;;;;5113546;28;19962;-49
2022/07/21 02:26:25;;;;;;;;;;;25.90;68.50;;;;;;5112885;28;19919;-51
2022/07/21 02:28:51;;;;;;;;;;;25.60;69.10;;;;;;5112639;28;19920;-51
2022/07/21 02:31:16;;;;;;;;;;;25.60;69.20;;;;;;5113532;28;20286;-51
2022/07/21 02:33:42;;;;;;;;;;;25.60;69.10;;;;;;5113373;28;19972;-52
2022/07/21 02:36:08;;;;;;;;;;;25.60;68.50;;;;;;5113005;28;19912;-53
2022/07/21 02:38:33;;;;;;;;;;;25.80;68.50;;;;;;5113113;28;20382;-47
2022/07/21 02:40:59;;;;;;;;;;;25.80;68.10;;;;;;5113300;28;20403;-49
2022/07/21 02:43:24;;;;;;;;;;;26.00;68.00;;;;;;5113730;28;19916;-48
2022/07/21 02:45:50;;;;;;;;;;;26.00;67.70;;;;;;5116580;28;19908;-50
2022/07/21 02:48:15;;;;;;;;;;;26.00;67.50;;;;;;5115876;28;19912;-53
2022/07/21 02:50:42;;;;;;;;;;;26.20;67.60;;;;;;5116393;28;19912;-53
2022/07/21 02:53:09;;;;;;;;;;;26.20;67.50;;;;;;5116896;28;19947;-51
2022/07/21 02:55:36;;;;;;;;;;;26.20;67.40;;;;;;5115656;28;20434;-50
2022/07/21 02:58:04;;;;;;;;;;;26.20;67.20;;;;;;5097756;28;19923;-48
2022/07/21 03:00:30;;;;;;;;;;;26.00;67.70;;;;;;5116215;28;19915;-52
2022/07/21 03:02:55;;;;;;;;;;;25.90;68.30;;;;;;5116273;28;19955;-49
2022/07/21 03:05:21;;;;;;;;;;;25.60;69.00;;;;;;5116101;28;19959;-51
2022/07/21 03:07:46;;;;;;;;;;;25.60;69.20;;;;;;5116268;28;19916;-51
2022/07/21 03:10:12;;;;;;;;;;;25.50;69.60;;;;;;5114913;28;20008;-52
2022/07/21 03:12:37;;;;;;;;;;;25.40;69.80;;;;;;5115899;28;19914;-47
2022/07/21 03:15:03;;;;;;;;;;;25.40;70.00;;;;;;5115500;28;19922;-47
2022/07/21 03:17:29;;;;;;;;;;;25.30;70.20;;;;;;5115138;28;20014;-49
2022/07/21 03:19:54;;;;;;;;;;;25.30;70.30;;;;;;5097898;28;19926;-52
2022/07/21 03:22:20;;;;;;;;;;;25.20;70.40;;;;;;5116056;28;20294;-46
2022/07/21 03:24:45;;;;;;;;;;;25.10;70.80;;;;;;5116926;28;19916;-48
2022/07/21 03:27:11;;;;;;;;;;;25.00;71.20;;;;;;5115979;28;19916;-52
2022/07/21 03:29:36;;;;;;;;;;;25.00;71.40;;;;;;5115751;28;19912;-51
2022/07/21 03:32:02;;;;;;;;;;;25.00;71.50;;;;;;5115779;28;19916;-53
2022/07/21 03:34:28;;;;;;;;;;;24.80;71.60;;;;;;5116321;28;19912;-51
2022/07/21 03:36:53;;;;;;;;;;;25.00;71.50;;;;;;5115255;28;19927;-48
2022/07/21 03:39:19;;;;;;;;;;;25.10;71.40;;;;;;5115927;28;20053;-54
2022/07/21 03:41:44;;;;;;;;;;;25.20;70.70;;;;;;5115248;28;19916;-47
2022/07/21 03:44:10;;;;;;;;;;;25.30;70.20;;;;;;5126955;27;19911;-47
2022/07/21 03:46:35;;;;;;;;;;;25.50;70.00;;;;;;5123404;27;19960;-48
2022/07/21 03:49:01;;;;;;;;;;;25.50;69.80;;;;;;5115990;28;19920;-50
2022/07/21 03:51:26;;;;;;;;;;;25.60;69.30;;;;;;5115845;27;19915;-48
2022/07/21 03:53:52;;;;;;;;;;;25.70;69.00;;;;;;5115865;28;19916;-48
2022/07/21 03:56:17;;;;;;;;;;;25.70;68.90;;;;;;5115838;28;19912;-53
2022/07/21 03:58:43;;;;;;;;;;;25.70;69.00;;;;;;5115868;28;19914;-51
2022/07/21 04:01:08;;;;;;;;;;;25.80;69.00;;;;;;5116145;28;19970;-50
2022/07/21 04:03:35;;;;;;;;;;;25.80;69.00;;;;;;5116035;28;20385;-54
2022/07/21 04:06:00;;;;;;;;;;;25.90;69.10;;;;;;5115347;28;19913;-50
2022/07/21 04:08:26;;;;;;;;;;;25.90;69.00;;;;;;5115302;28;20393;-53
2022/07/21 04:10:52;;;;;;;;;;;25.90;69.10;;;;;;5096743;28;19916;-54
2022/07/21 04:13:17;;;;;;;;;;;26.00;69.00;;;;;;5117891;28;19915;-54
2022/07/21 04:15:43;;;;;;;;;;;26.10;69.20;;;;;;5115828;28;20010;-54
2022/07/21 04:18:09;;;;;;;;;;;25.90;69.50;;;;;;5115904;28;19916;-51
2022/07/21 04:20:34;;;;;;;;;;;25.80;69.80;;;;;;5115097;28;19963;-51
2022/07/21 04:23:00;;;;;;;;;;;25.70;70.70;;;;;;5096951;28;19915;-50
2022/07/21 04:25:26;;;;;;;;;;;25.50;71.00;;;;;;5114690;28;19923;-51
2022/07/21 04:27:51;;;;;;;;;;;25.40;71.80;;;;;;5096450;28;19912;-47
2022/07/21 04:30:19;;;;;;;;;;;25.30;72.10;;;;;;5114368;28;19923;-48
2022/07/21 04:32:45;;;;;;;;;;;25.40;72.20;;;;;;5114507;28;19912;-49
2022/07/21 04:35:11;;;;;;;;;;;25.40;72.20;;;;;;5114602;28;19919;-50
2022/07/21 04:37:37;;;;;;;;;;;25.20;73.30;;;;;;5114984;28;20323;-52
2022/07/21 04:40:03;;;;;;;;;;;25.20;73.20;;;;;;5096540;28;19923;-53
2022/07/21 04:42:29;;;;;;;;;;;25.30;73.00;;;;;;5114480;28;19911;-51
2022/07/21 04:44:54;;;;;;;;;;;25.30;72.90;;;;;;5132060;27;19911;-50
2022/07/21 04:47:20;;;;;;;;;;;25.10;73.40;;;;;;5130689;27;19919;-50
2022/07/21 04:49:46;;;;;;;;;;;25.10;73.60;;;;;;5115794;28;19916;-50
2022/07/21 04:52:11;;;;;;;;;;;25.10;73.10;;;;;;5115416;28;19908;-53
2022/07/21 04:54:37;;;;;;;;;;;25.10;73.50;;;;;;5114147;28;19912;-53
2022/07/21 04:57:03;;;;;;;;;;;24.90;74.40;;;;;;5111374;28;19962;-50
2022/07/21 04:59:29;;;;;;;;;;;24.90;74.40;;;;;;5092421;28;20384;-51
2022/07/21 05:01:55;;;;;;;;;;;25.00;74.30;;;;;;5110902;28;19976;-47
2022/07/21 05:04:21;;;;;;;;;;;24.90;74.50;;;;;;5113696;28;19955;-47
2022/07/21 05:06:46;;;;;;;;;;;24.80;74.60;;;;;;5113222;28;19927;-47
2022/07/21 05:09:12;;;;;;;;;;;25.10;74.00;;;;;;5114565;28;19908;-52
2022/07/21 05:11:38;;;;;;;;;;;25.30;73.80;;;;;;5114063;28;19912;-51
2022/07/21 05:14:04;;;;;;;;;;;25.50;73.10;;;;;;5115023;28;19918;-48
2022/07/21 05:16:29;;;;;;;;;;;25.60;72.70;;;;;;5112873;28;20443;-48
2022/07/21 05:18:55;;;;;;;;;;;25.80;71.90;;;;;;5113583;28;19915;-47
2022/07/21 05:21:20;;;;;;;;;;;26.00;71.80;;;;;;5114271;28;19957;-50
2022/07/21 05:23:46;;;;;;;;;;;26.00;71.50;;;;;;5114243;28;20385;-50
2022/07/21 05:26:12;;;;;;;;;;;26.10;71.50;;;;;;5113066;28;19958;-48
2022/07/21 05:28:37;;;;;;;;;;;26.20;71.30;;;;;;5113260;28;19999;-48
2022/07/21 05:31:03;;;;;;;;;;;26.10;71.40;;;;;;5113510;28;19963;-52
2022/07/21 05:33:29;;;;;;;;;;;26.00;71.80;;;;;;5114145;28;19912;-48
2022/07/21 05:35:54;;;;;;;;;;;25.60;72.70;;;;;;5113170;28;19937;-48
2022/07/21 05:38:20;;;;;;;;;;;25.40;73.70;;;;;;5093083;28;19916;-48
2022/07/21 05:40:45;;;;;;;;;;;25.30;73.80;;;;;;5107578;28;19963;-49
2022/07/21 05:43:11;;;;;;;;;;;25.30;74.40;;;;;;5115849;27;20014;-50
2022/07/21 05:45:36;;;;;;;;;;;25.40;74.50;;;;;;5120909;27;20366;-54
2022/07/21 05:48:02;;;;;;;;;;;25.40;74.20;;;;;;5113048;28;19923;-48
2022/07/21 05:50:28;;;;;;;;;;;25.30;75.30;;;;;;5114028;28;19923;-50
2022/07/21 05:52:53;;;;;;;;;;;25.30;75.20;;;;;;5113100;28;20020;-51
2022/07/21 05:55:19;;;;;;;;;;;25.30;75.50;;;;;;5113461;28;19919;-52
2022/07/21 05:57:44;;;;;;;;;;;25.10;76.10;;;;;;5112906;28;19963;-49
2022/07/21 06:00:10;;;;;;;;;;;25.00;76.50;;;;;;5112999;28;20379;-48
2022/07/21 06:02:36;;;;;;;;;;;25.20;76.80;;;;;;5113332;28;20100;-47
2022/07/21 06:05:01;;;;;;;;;;;25.20;76.90;;;;;;5113847;28;19941;-55
2022/07/21 06:07:27;;;;;;;;;;;25.10;77.30;;;;;;5113109;28;20283;-48
2022/07/21 06:09:52;;;;;;;;;;;25.10;78.00;;;;;;5113797;28;19936;-50
2022/07/21 06:12:18;;;;;;;;;;;25.00;78.90;;;;;;5113741;28;19918;-47
2022/07/21 06:14:44;;;;;;;;;;;24.90;79.60;;;;;;5113188;28;19912;-54
2022/07/21 06:17:09;;;;;;;;;;;24.80;80.50;;;;;;5112076;28;19920;-53
2022/07/21 06:19:35;;;;;;;;;;;24.80;80.30;;;;;;5116656;28;19955;-55
2022/07/21 06:22:02;;;;;;;;;;;25.00;80.50;;;;;;5117942;28;20298;-54
2022/07/21 06:24:28;;;;;;;;;;;25.00;80.70;;;;;;5116741;28;19920;-57
2022/07/21 06:26:56;;;;;;;;;;;25.10;80.40;;;;;;5116769;28;19976;-54
2022/07/21 06:29:22;;;;;;;;;;;25.10;81.20;;;;;;5117166;28;19959;-54
2022/07/21 06:31:48;;;;;;;;;;;25.00;81.90;;;;;;5116344;28;19998;-53
2022/07/21 06:34:13;;;;;;;;;;;25.10;81.60;;;;;;5116845;28;19970;-52
2022/07/21 06:36:39;;;;;;;;;;;25.00;82.30;;;;;;5098664;28;20002;-50
2022/07/21 06:39:05;;;;;;;;;;;24.90;82.50;;;;;;5099096;28;20100;-54
2022/07/21 06:41:30;;;;;;;;;;;25.10;82.00;;;;;;5098656;28;19912;-53
2022/07/21 06:43:56;;;;;;;;;;;25.10;82.20;;;;;;5117064;28;19939;-55
2022/07/21 06:46:22;;;;;;;;;;;25.20;82.20;;;;;;5115100;28;20034;-56
2022/07/21 06:48:47;;;;;;;;;;;25.20;82.50;;;;;;5098257;28;19936;-52
2022/07/21 06:51:13;;;;;;;;;;;25.10;82.80;;;;;;5097178;28;19919;-56
2022/07/21 06:53:38;;;;;;;;;;;25.40;82.10;;;;;;5119642;27;19963;-57
2022/07/21 06:56:04;;;;;;;;;;;25.50;82.30;;;;;;5115888;28;19912;-53
2022/07/21 06:58:31;;;;;;;;;;;25.60;82.20;;;;;;5116393;28;19920;-54
2022/07/21 07:00:56;;;;;;;;;;;25.50;82.40;;;;;;5116508;28;19931;-56
2022/07/21 07:03:23;;;;;;;;;;;25.50;82.90;;;;;;5117161;28;19919;-56
2022/07/21 07:05:49;;;;;;;;;;;25.40;83.20;;;;;;5116070;28;19912;-52
2022/07/21 07:08:15;;;;;;;;;;;25.50;83.60;;;;;;5115521;28;19916;-58
2022/07/21 07:10:40;;;;;;;;;;;25.20;84.40;;;;;;5116544;28;19935;-56
2022/07/21 07:13:06;;;;;;;;;;;25.10;85.10;;;;;;5116458;28;19914;-55
2022/07/21 07:15:32;;;;;;;;;;;25.00;86.00;;;;;;5117140;28;20282;-56
2022/07/21 07:17:57;;;;;;;;;;;25.00;86.20;;;;;;5098939;28;20410;-56
2022/07/21 07:20:23;;;;;;;;;;;25.10;86.20;;;;;;5117492;28;20010;-59
2022/07/21 07:22:48;;;;;;;;;;;25.10;86.60;;;;;;5115243;28;19916;-54
2022/07/21 07:25:17;;;;;;;;;;;25.10;87.30;;;;;;5116475;28;19912;-55
2022/07/21 07:27:44;;;;;;;;;;;25.10;87.20;;;;;;5115406;28;20001;-50
2022/07/21 07:30:09;;;;;;;;;;;25.10;87.50;;;;;;5115731;27;19911;-55
2022/07/21 07:32:35;;;;;;;;;;;25.20;87.30;;;;;;5116268;28;19999;-55
2022/07/21 07:35:01;;;;;;;;;;;25.30;87.40;;;;;;5106950;28;19923;-53
2022/07/21 07:37:26;;;;;;;;;;;25.30;87.70;;;;;;5106983;28;19920;-55
2022/07/21 07:39:51;;;;;;;;;;;25.40;87.70;;;;;;5115241;28;19916;-54
2022/07/21 07:42:17;;;;;;;;;;;25.30;88.50;;;;;;5115930;28;19922;-52
2022/07/21 07:44:43;;;;;;;;;;;25.20;89.20;;;;;;5131418;27;19919;-54
2022/07/21 07:47:08;;;;;;;;;;;25.10;89.30;;;;;;5098681;28;19916;-55
2022/07/21 07:49:34;;;;;;;;;;;25.00;89.80;;;;;;5115785;28;19959;-59
2022/07/21 07:51:59;;;;;;;;;;;25.00;90.10;;;;;;5115935;28;19916;-53
2022/07/21 07:54:25;;;;;;;;;;;24.80;90.50;;;;;;5115384;28;19916;-54
2022/07/21 07:56:50;;;;;;;;;;;24.70;90.70;;;;;;5114218;28;19919;-51
2022/07/21 07:59:16;;;;;;;;;;;24.60;91.20;;;;;;5115515;28;19912;-47
2022/07/21 08:01:42;;;;;;;;;;;24.60;91.30;;;;;;5113436;28;19956;-49
2022/07/21 08:04:07;;;;;;;;;;;24.50;91.40;;;;;;5096349;28;19912;-49
2022/07/21 08:06:33;;;;;;;;;;;24.50;92.00;;;;;;5114983;28;19920;-48
2022/07/21 08:08:58;;;;;;;;;;;24.50;92.20;;;;;;5111022;28;20495;-47
2022/07/21 08:11:24;;;;;;;;;;;24.50;92.20;;;;;;5111709;28;20627;-49
2022/07/21 08:13:49;;;;;;;;;;;24.60;92.50;;;;;;5115305;28;19923;-52
2022/07/21 08:16:15;;;;;;;;;;;24.60;92.70;;;;;;5114937;28;19911;-54
2022/07/21 08:18:43;;;;;;;;;;;24.70;92.90;;;;;;5096518;28;19915;-49
2022/07/21 08:21:09;;;;;;;;;;;24.70;93.20;;;;;;5114546;28;19915;-51
2022/07/21 08:23:35;;;;;;;;;;;24.70;93.30;;;;;;5112864;28;19920;-50
2022/07/21 08:26:01;;;;;;;;;;;24.80;93.30;;;;;;5114111;28;20013;-49
2022/07/21 08:28:26;;;;;;;;;;;24.70;93.50;;;;;;5114039;28;20386;-52
2022/07/21 08:30:52;;;;;;;;;;;24.60;93.80;;;;;;5114964;28;19914;-50
2022/07/21 08:33:17;;;;;;;;;;;24.70;93.70;;;;;;5114293;28;19923;-55
2022/07/21 08:35:43;;;;;;;;;;;24.60;93.90;;;;;;5096459;28;19920;-47
2022/07/21 08:38:09;;;;;;;;;;;24.60;94.10;;;;;;5114067;28;19924;-49
2022/07/21 08:40:36;;;;;;;;;;;24.60;94.50;;;;;;5114264;28;20394;-50
2022/07/21 08:43:02;;;;;;;;;;;24.80;94.70;;;;;;5116321;27;19914;-52
2022/07/21 08:45:30;;;;;;;;;;;24.90;94.50;;;;;;5135425;27;19911;-49
2022/07/21 08:47:56;;;;;;;;;;;25.00;94.20;;;;;;5125056;27;19963;-52
2022/07/21 08:50:23;;;;;;;;;;;25.10;93.80;;;;;;5111546;28;20005;-55
2022/07/21 08:52:48;;;;;;;;;;;25.00;94.50;;;;;;5094060;28;19908;-51
2022/07/21 08:55:14;;;;;;;;;;;25.00;94.50;;;;;;5093674;28;19916;-48
2022/07/21 08:57:40;;;;;;;;;;;25.10;94.10;;;;;;5093983;28;20286;-55
2022/07/21 09:00:06;;;;;;;;;;;25.00;94.30;;;;;;5093951;28;20383;-56
2022/07/21 09:02:33;;;;;;;;;;;24.90;94.90;;;;;;5076073;28;20436;-51
2022/07/21 09:04:59;;;;;;;;;;;25.00;94.90;;;;;;5094199;28;19920;-54
2022/07/21 09:07:25;;;;;;;;;;;25.10;94.90;;;;;;5093757;28;20019;-49
2022/07/21 09:10:01;;;;;;;;;;;25.20;94.50;;;;;;5094065;28;20353;-51
2022/07/21 09:12:27;;;;;;;;;;;25.20;94.80;;;;;;5093401;28;19919;-53
2022/07/21 09:15:12;;;;;;;;;;;25.20;94.80;;;;;;5093717;28;20316;-53
2022/07/21 09:17:37;;;;;;;;;;;25.20;94.90;;;;;;5093216;28;20405;-49
2022/07/21 09:20:03;;;;;;;;;;;25.30;95.00;;;;;;5093704;28;19916;-50
2022/07/21 09:22:29;;;;;;;;;;;25.40;94.80;;;;;;5093678;28;19916;-55
2022/07/21 09:24:54;;;;;;;;;;;25.50;94.80;;;;;;5090515;28;19920;-52
2022/07/21 09:27:26;;;;;;;;;;;25.50;94.50;;;;;;5095515;28;19911;-50
2022/07/21 09:29:53;;;;;;;;;;;25.40;94.70;;;;;;5113954;28;19915;-55
2022/07/21 09:32:25;;;;;;;;;;;25.50;94.50;;;;;;5113188;28;20197;-51
2022/07/21 09:35:01;;;;;;;;;;;25.70;94.60;;;;;;5113691;28;19912;-48
2022/07/21 09:37:26;;;;;;;;;;;25.70;94.00;;;;;;5086975;28;19959;-49
2022/07/21 09:39:56;;;;;;;;;;;25.80;93.40;;;;;;5092658;28;20268;-53
2022/07/21 09:42:22;;;;;;;;;;;25.80;93.30;;;;;;5093026;28;20375;-56
2022/07/21 09:44:49;;;;;;;;;;;25.80;93.70;;;;;;5106872;27;20029;-52
2022/07/21 09:47:16;;;;;;;;;;;25.70;93.60;;;;;;5134327;27;19911;-53
2022/07/21 09:49:41;;;;;;;;;;;25.80;93.50;;;;;;5134038;27;19918;-52
2022/07/21 09:52:19;;;;;;;;;;;25.80;92.90;;;;;;5116228;27;19911;-54
2022/07/21 09:54:45;;;;;;;;;;;25.80;92.60;;;;;;5114264;28;19908;-53
2022/07/21 09:57:11;;;;;;;;;;;25.70;92.10;;;;;;5114079;28;20272;-57
2022/07/21 09:59:38;;;;;;;;;;;25.80;92.50;;;;;;5112516;28;20436;-54
2022/07/21 10:02:03;;;;;;;;;;;26.00;91.70;;;;;;5113531;28;20386;-51
2022/07/21 10:04:30;;;;;;;;;;;26.20;91.00;;;;;;5113021;28;19912;-49
2022/07/21 10:06:56;;;;;;;;;;;26.10;91.30;;;;;;5113550;28;19940;-52
2022/07/21 10:09:22;;;;;;;;;;;26.30;91.20;;;;;;5113060;28;19919;-50
2022/07/21 10:11:48;;;;;;;;;;;26.60;91.30;;;;;;5113370;28;19912;-50
2022/07/21 10:14:13;;;;;;;;;;;26.90;90.70;;;;;;5113937;28;20014;-51
2022/07/21 10:16:39;;;;;;;;;;;27.20;90.40;;;;;;5115152;28;19922;-54
2022/07/21 10:19:09;;;;;;;;;;;27.60;89.40;;;;;;5118024;28;20391;-56
2022/07/21 10:21:35;;;;;;;;;;;27.80;87.80;;;;;;5119168;28;20006;-52
2022/07/21 10:24:01;;;;;;;;;;;27.70;87.70;;;;;;5113959;28;19916;-50
2022/07/21 10:26:27;;;;;;;;;;;27.70;87.90;;;;;;5113241;28;19967;-52
2022/07/21 10:28:52;;;;;;;;;;;27.90;87.60;;;;;;5113356;28;19938;-52
2022/07/21 10:31:19;;;;;;;;;;;28.20;86.40;;;;;;5096417;28;19908;-52
2022/07/21 10:33:45;;;;;;;;;;;28.50;86.10;;;;;;5074833;28;19912;-48
2022/07/21 10:36:11;;;;;;;;;;;28.60;84.70;;;;;;5074972;28;20430;-51
2022/07/21 10:38:37;;;;;;;;;;;28.70;84.30;;;;;;5058053;28;19920;-52
2022/07/21 10:41:04;;;;;;;;;;;28.80;83.90;;;;;;5093067;28;19940;-53
2022/07/21 10:43:29;;;;;;;;;;;28.70;83.40;;;;;;5102939;28;19908;-47
2022/07/21 10:45:55;;;;;;;;;;;28.60;83.40;;;;;;5134246;28;19998;-50
2022/07/21 10:48:50;;;;;;;;;;;28.60;83.10;;;;;;5134079;28;19911;-51
2022/07/21 10:51:16;;;;;;;;;;;28.60;82.20;;;;;;5101074;28;19908;-47
2022/07/21 10:53:44;;;;;;;;;;;28.80;81.60;;;;;;5112657;28;20416;-46
2022/07/21 10:56:31;;;;;;;;;;;28.80;81.30;;;;;;5113431;28;19939;-48
2022/07/21 10:58:57;;;;;;;;;;;28.80;80.30;;;;;;5103996;28;19912;-52
2022/07/21 11:01:25;;;;;;;;;;;28.60;80.20;;;;;;5113700;28;20373;-53
2022/07/21 11:04:08;;;;;;;;;;;28.20;81.00;;;;;;5095848;28;19915;-53
2022/07/21 11:06:34;;;;;;;;;;;28.10;81.30;;;;;;5117268;28;19915;-53
2022/07/21 11:09:03;;;;;;;;;;;28.10;81.10;;;;;;5117001;28;19908;-50
2022/07/21 11:11:29;;;;;;;;;;;28.10;81.40;;;;;;5098645;28;19960;-49
2022/07/21 11:14:03;;;;;;;;;;;28.40;81.00;;;;;;5116859;28;20406;-52
2022/07/21 11:16:49;;;;;;;;;;;28.70;80.70;;;;;;5115683;28;19912;-53
2022/07/21 11:19:39;;;;;;;;;;;28.90;78.90;;;;;;5116347;28;19914;-48
2022/07/21 11:22:17;;;;;;;;;;;28.60;79.60;;;;;;5116399;28;20426;-51
2022/07/21 11:24:47;;;;;;;;;;;28.80;79.40;;;;;;5116374;28;20074;-48
2022/07/21 11:27:17;;;;;;;;;;;29.00;78.90;;;;;;5116563;28;20015;-50
2022/07/21 11:29:43;;;;;;;;;;;29.00;78.00;;;;;;5114520;28;19965;-55
2022/07/21 11:32:10;;;;;;;;;;;29.00;77.70;;;;;;5115527;28;19908;-48
2022/07/21 11:34:39;;;;;;;;;;;29.10;77.10;;;;;;5116132;28;19968;-47
2022/07/21 11:37:05;;;;;;;;;;;29.10;76.90;;;;;;5116068;28;19916;-49
2022/07/21 11:39:31;;;;;;;;;;;29.20;76.80;;;;;;5115953;28;20278;-51
2022/07/21 11:42:02;;;;;;;;;;;28.90;77.10;;;;;;5116414;28;19947;-50
2022/07/21 11:44:27;;;;;;;;;;;28.80;77.70;;;;;;5129004;27;19907;-53
2022/07/21 11:46:54;;;;;;;;;;;29.10;77.60;;;;;;5135943;27;19922;-51
2022/07/21 11:49:19;;;;;;;;;;;29.30;76.50;;;;;;5136548;27;20389;-50
2022/07/21 11:51:49;;;;;;;;;;;29.00;76.90;;;;;;5136151;27;19907;-50
2022/07/21 11:54:22;;;;;;;;;;;28.60;77.90;;;;;;5136304;27;20060;-52
2022/07/21 11:56:50;;;;;;;;;;;28.20;78.70;;;;;;5135257;27;19922;-53
2022/07/21 11:59:16;;;;;;;;;;;28.10;78.80;;;;;;5136317;27;19912;-52
2022/07/21 12:01:51;;;;;;;;;;;28.20;79.10;;;;;;5137851;27;19908;-50
2022/07/21 12:04:28;;;;;;;;;;;28.10;79.40;;;;;;5137714;27;19908;-55
2022/07/21 12:06:53;;;;;;;;;;;27.90;80.20;;;;;;5136200;27;19916;-53
2022/07/21 12:09:19;;;;;;;;;;;27.80;80.10;;;;;;5136534;27;19919;-51
2022/07/21 12:11:45;;;;;;;;;;;27.90;79.70;;;;;;5136280;27;20394;-51
2022/07/21 12:14:11;;;;;;;;;;;27.90;80.00;;;;;;5136423;27;19960;-53
2022/07/21 12:16:49;;;;;;;;;;;28.00;79.60;;;;;;5134243;27;19918;-55
2022/07/21 12:19:15;;;;;;;;;;;27.70;81.20;;;;;;5135963;27;19951;-56
2022/07/21 12:21:45;;;;;;;;;;;27.40;82.40;;;;;;5135808;27;20397;-60
2022/07/21 12:24:10;;;;;;;;;;;27.50;83.30;;;;;;5125903;27;19982;-60
2022/07/21 12:26:36;;;;;;;;;;;27.70;85.10;;;;;;5095926;28;19955;-58
2022/07/21 12:29:02;;;;;;;;;;;28.10;85.80;;;;;;5097079;28;20007;-58
2022/07/21 12:31:27;;;;;;;;;;;28.40;86.20;;;;;;5115119;28;20000;-54
2022/07/21 12:33:55;;;;;;;;;;;28.60;86.30;;;;;;5116076;28;19915;-52
2022/07/21 12:36:21;;;;;;;;;;;28.80;87.20;;;;;;5114773;28;19911;-54
2022/07/21 12:38:48;;;;;;;;;;;28.90;86.80;;;;;;5115210;28;19908;-53
2022/07/21 12:41:17;;;;;;;;;;;29.10;87.50;;;;;;5115350;28;20004;-53
2022/07/21 12:43:43;;;;;;;;;;;29.30;85.00;;;;;;5122322;27;20283;-52
2022/07/21 12:46:10;;;;;;;;;;;29.60;83.20;;;;;;5135245;27;19933;-55
2022/07/21 12:48:36;;;;;;;;;;;29.40;82.70;;;;;;5135774;27;19975;-53
2022/07/21 12:51:09;;;;;;;;;;;29.30;79.50;;;;;;5127588;27;20577;-54
2022/07/21 12:53:36;;;;;;;;;;;29.20;77.90;;;;;;5115393;28;19908;-54
2022/07/21 12:56:02;;;;;;;;;;;29.30;79.50;;;;;;5115494;28;19908;-56
2022/07/21 12:58:28;;;;;;;;;;;29.30;79.50;;;;;;5115118;28;20445;-54
2022/07/21 13:00:53;;;;;;;;;;;29.10;77.60;;;;;;5115055;28;20003;-55
2022/07/21 13:03:19;;;;;;;;;;;28.80;74.70;;;;;;5115921;28;19912;-53
2022/07/21 13:05:45;;;;;;;;;;;29.10;73.20;;;;;;5114428;28;19919;-55
2022/07/21 13:08:10;;;;;;;;;;;29.30;72.20;;;;;;5115430;28;19908;-53
2022/07/21 13:10:36;;;;;;;;;;;29.00;72.50;;;;;;5114725;28;19911;-55
2022/07/21 13:13:01;;;;;;;;;;;28.90;70.70;;;;;;5115036;28;19912;-54
2022/07/21 13:15:27;;;;;;;;;;;29.10;69.50;;;;;;5114578;28;19920;-55
2022/07/21 13:17:52;;;;;;;;;;;29.20;68.80;;;;;;5115267;28;19911;-54
2022/07/21 13:20:18;;;;;;;;;;;29.30;68.60;;;;;;5115876;28;19926;-52
2022/07/21 13:22:43;;;;;;;;;;;29.40;69.20;;;;;;5115789;28;19965;-51
2022/07/21 13:25:10;;;;;;;;;;;29.80;68.40;;;;;;5096359;28;19911;-56
2022/07/21 13:27:36;;;;;;;;;;;30.00;66.20;;;;;;5113988;28;19950;-54
2022/07/21 13:30:03;;;;;;;;;;;29.70;65.40;;;;;;5113824;28;19908;-53
2022/07/21 13:32:28;;;;;;;;;;;29.50;66.00;;;;;;5113766;28;20334;-54
2022/07/21 13:34:54;;;;;;;;;;;29.60;67.30;;;;;;5096312;28;19923;-55
2022/07/21 13:37:19;;;;;;;;;;;29.60;66.70;;;;;;5113626;28;19916;-54
2022/07/21 13:39:45;;;;;;;;;;;29.60;67.50;;;;;;5114105;28;19918;-52
2022/07/21 13:42:11;;;;;;;;;;;29.90;66.20;;;;;;5114310;28;19911;-53
2022/07/21 13:44:37;;;;;;;;;;;30.00;63.60;;;;;;5110542;27;19922;-55
2022/07/21 13:47:02;;;;;;;;;;;30.10;64.40;;;;;;5134425;27;19998;-53
2022/07/21 13:49:28;;;;;;;;;;;30.30;64.30;;;;;;5134417;27;19937;-54
2022/07/21 13:51:53;;;;;;;;;;;30.60;62.60;;;;;;5118191;27;20015;-50
2022/07/21 13:54:19;;;;;;;;;;;30.60;62.70;;;;;;5113830;28;19911;-54
2022/07/21 13:56:45;;;;;;;;;;;30.80;63.10;;;;;;5113583;28;20026;-51
2022/07/21 13:59:11;;;;;;;;;;;31.00;62.40;;;;;;5114366;28;19969;-50
2022/07/21 14:01:36;;;;;;;;;;;31.00;61.00;;;;;;5114176;28;20049;-53
2022/07/21 14:04:02;;;;;;;;;;;30.50;61.00;;;;;;5113209;28;20264;-50
2022/07/21 14:06:27;;;;;;;;;;;30.10;61.90;;;;;;5112845;28;20006;-52
2022/07/21 14:08:53;;;;;;;;;;;29.90;62.30;;;;;;5113284;28;19927;-51
2022/07/21 14:11:19;;;;;;;;;;;29.70;62.00;;;;;;5113200;28;19908;-48
2022/07/21 14:13:45;;;;;;;;;;;29.50;62.80;;;;;;5114582;28;20382;-51